Time;durP1;ratioP1;P1;durP2;ratioP2;P2;SDS_P1;SDS_P2;PMS_P1;PMS_P2;Temp;Humidity;BMP_temperature;BMP_pressure;BME280_temperature;BME280_humidity;BME280_pressure;Samples;Min_cycle;Max_cycle;Signal;HPM_P1;HPM_P2
2022/06/13 00:00:15;;;;;;;15.60;10.70;;;16.70;99.90;;;;;;4860133;29;20189;-60
2022/06/13 00:02:41;;;;;;;12.40;11.10;;;16.70;99.90;;;;;;4860381;29;20568;-60
2022/06/13 00:05:09;;;;;;;16.87;12.10;;;16.60;99.90;;;;;;4859688;29;20197;-61
2022/06/13 00:07:34;;;;;;;17.80;11.30;;;16.60;99.90;;;;;;4843805;29;20301;-61
2022/06/13 00:10:01;;;;;;;14.03;11.37;;;16.60;99.90;;;;;;4856669;29;20190;-60
2022/06/13 00:12:28;;;;;;;12.43;10.57;;;16.50;99.90;;;;;;4842225;29;20197;-62
2022/06/13 00:14:53;;;;;;;13.60;10.07;;;16.50;99.90;;;;;;4841489;29;20194;-61
2022/06/13 00:17:19;;;;;;;14.70;11.30;;;16.50;99.90;;;;;;4841812;29;20256;-61
2022/06/13 00:19:45;;;;;;;12.00;10.57;;;16.50;99.90;;;;;;4859065;29;20408;-61
2022/06/13 00:22:11;;;;;;;12.30;10.53;;;16.40;99.90;;;;;;4843802;29;20188;-61
2022/06/13 00:24:37;;;;;;;11.80;10.10;;;16.40;99.90;;;;;;4860162;29;20194;-60
2022/06/13 00:27:03;;;;;;;18.23;10.57;;;16.40;99.90;;;;;;4859764;29;20237;-61
2022/06/13 00:29:29;;;;;;;12.07;10.67;;;16.30;99.90;;;;;;4860128;29;20189;-61
2022/06/13 00:31:55;;;;;;;15.53;10.83;;;16.40;99.90;;;;;;4859897;29;20303;-61
2022/06/13 00:34:21;;;;;;;15.97;11.73;;;16.30;99.90;;;;;;4860132;29;20523;-60
2022/06/13 00:36:47;;;;;;;19.47;12.40;;;16.30;99.90;;;;;;4860209;29;20642;-60
2022/06/13 00:39:13;;;;;;;16.37;11.30;;;16.30;99.90;;;;;;4859898;29;20227;-60
2022/06/13 00:41:41;;;;;;;15.30;11.27;;;16.20;99.90;;;;;;4843630;29;20197;-61
2022/06/13 00:44:34;;;;;;;16.80;11.43;;;16.10;99.90;;;;;;4859499;29;20216;-60
2022/06/13 00:47:00;;;;;;;17.40;11.80;;;16.10;99.90;;;;;;4857421;29;20292;-60
2022/06/13 00:49:41;;;;;;;14.63;11.30;;;16.00;99.90;;;;;;4859700;29;20244;-61
2022/06/13 00:52:32;;;;;;;15.20;11.63;;;16.00;99.90;;;;;;4859762;29;20189;-60
2022/06/13 00:54:58;;;;;;;18.57;12.13;;;15.90;99.90;;;;;;4859393;29;20177;-60
2022/06/13 00:57:27;;;;;;;17.33;12.03;;;15.80;99.90;;;;;;4843135;29;20299;-62
2022/06/13 01:00:04;;;;;;;15.90;12.27;;;15.80;99.90;;;;;;4859543;29;20177;-60
2022/06/13 01:02:30;;;;;;;16.40;11.83;;;15.70;99.90;;;;;;4859672;29;20303;-61
2022/06/13 01:04:58;;;;;;;16.27;11.93;;;15.60;99.90;;;;;;4859432;29;20284;-60
2022/06/13 01:07:24;;;;;;;15.07;11.93;;;15.50;99.90;;;;;;4859607;29;20574;-61
2022/06/13 01:12:37;;;;;;;14.77;12.03;;;15.40;99.90;;;;;;4841547;29;20204;-61
2022/06/13 01:15:10;;;;;;;19.00;12.20;;;15.30;99.90;;;;;;4840867;29;20181;-61
2022/06/13 01:18:13;;;;;;;16.90;13.07;;;15.20;99.90;;;;;;4845084;29;20268;-61
2022/06/13 01:20:58;;;;;;;21.43;13.17;;;15.10;99.90;;;;;;4863770;29;20173;-61
2022/06/13 01:23:41;;;;;;;18.47;11.80;;;15.00;99.90;;;;;;4863366;29;20527;-61
2022/06/13 01:26:52;;;;;;;19.33;12.67;;;15.00;99.90;;;;;;4863107;29;20197;-60
2022/06/13 01:29:36;;;;;;;19.90;11.67;;;15.10;99.90;;;;;;4863233;29;20681;-61
2022/06/13 01:32:37;;;;;;;12.23;10.53;;;15.20;99.90;;;;;;4863140;29;20195;-60
2022/06/13 01:35:24;;;;;;;12.80;10.23;;;15.30;99.90;;;;;;4805822;29;20191;-60
2022/06/13 01:38:14;;;;;;;16.67;11.30;;;15.40;99.90;;;;;;4859595;29;20269;-60
2022/06/13 01:41:19;;;;;;;19.77;12.53;;;15.30;99.90;;;;;;4862932;29;20184;-61
2022/06/13 01:44:16;;;;;;;16.03;10.70;;;15.30;99.90;;;;;;4834340;29;20228;-61
2022/06/13 01:47:03;;;;;;;14.57;11.03;;;15.20;99.90;;;;;;4862781;29;20189;-60
2022/06/13 01:49:55;;;;;;;14.17;10.43;;;15.10;99.90;;;;;;4862788;29;20185;-60
2022/06/13 01:52:44;;;;;;;12.37;9.67;;;15.10;99.90;;;;;;4862881;29;20185;-60
2022/06/13 01:55:25;;;;;;;20.90;10.50;;;15.10;99.90;;;;;;4861813;29;20201;-61
2022/06/13 01:58:05;;;;;;;18.83;10.83;;;15.10;99.90;;;;;;4863040;29;20193;-61
2022/06/13 02:00:33;;;;;;;15.00;11.03;;;15.00;99.90;;;;;;4862652;29;20546;-61
2022/06/13 02:03:26;;;;;;;17.40;11.17;;;15.00;99.90;;;;;;4862431;29;20204;-60
2022/06/13 02:06:01;;;;;;;14.87;11.77;;;15.00;99.90;;;;;;4862478;29;20192;-60
2022/06/13 02:08:43;;;;;;;15.90;11.30;;;14.80;99.90;;;;;;4862462;29;20207;-61
2022/06/13 02:11:40;;;;;;;15.90;10.97;;;14.70;99.90;;;;;;4850051;29;20217;-60
2022/06/13 02:14:23;;;;;;;16.63;11.03;;;14.70;99.90;;;;;;4843866;29;20217;-60
2022/06/13 02:16:57;;;;;;;14.10;11.57;;;14.70;99.90;;;;;;4844008;29;20182;-60
2022/06/13 02:19:32;;;;;;;16.53;10.43;;;14.60;99.90;;;;;;4858383;29;20218;-60
2022/06/13 02:22:21;;;;;;;16.90;10.97;;;14.60;99.90;;;;;;4862030;29;20185;-60
2022/06/13 02:25:12;;;;;;;14.90;11.03;;;14.70;99.90;;;;;;4862677;29;20196;-60
2022/06/13 02:27:40;;;;;;;14.87;11.10;;;14.80;99.90;;;;;;4861712;29;20248;-61
2022/06/13 02:30:10;;;;;;;20.00;11.27;;;14.90;99.90;;;;;;4861787;29;20213;-60
2022/06/13 02:32:39;;;;;;;14.03;11.37;;;14.90;99.90;;;;;;4862307;29;20200;-60
2022/06/13 02:35:32;;;;;;;14.73;11.67;;;14.90;99.90;;;;;;4845076;29;20650;-62
2022/06/13 02:38:08;;;;;;;15.33;10.30;;;14.90;99.90;;;;;;4835752;29;20200;-61
2022/06/13 02:40:44;;;;;;;16.43;11.73;;;15.00;99.90;;;;;;4861965;29;20180;-60
2022/06/13 02:43:37;;;;;;;23.60;12.20;;;14.90;99.90;;;;;;4861630;29;20208;-60
2022/06/13 02:46:11;;;;;;;18.80;11.30;;;14.90;99.90;;;;;;4861760;29;20299;-61
2022/06/13 02:48:51;;;;;;;14.13;11.23;;;14.90;99.90;;;;;;4861860;29;20177;-60
2022/06/13 02:51:43;;;;;;;22.07;12.47;;;14.90;99.90;;;;;;4861595;29;20220;-61
2022/06/13 02:54:20;;;;;;;15.47;11.07;;;14.90;99.90;;;;;;4861756;29;20192;-60
2022/06/13 02:59:55;;;;;;;17.33;11.57;;;15.00;99.90;;;;;;4861763;29;20235;-61
2022/06/13 03:02:34;;;;;;;15.97;11.70;;;15.00;99.90;;;;;;4861551;29;20192;-61
2022/06/13 03:05:22;;;;;;;16.50;11.27;;;15.00;99.90;;;;;;4861470;29;20188;-61
2022/06/13 03:07:58;;;;;;;16.90;10.20;;;15.00;99.90;;;;;;4860436;29;20569;-61
2022/06/13 03:10:36;;;;;;;11.03;9.63;;;15.10;99.90;;;;;;4854920;29;20189;-61
2022/06/13 03:13:08;;;;;;;14.03;11.00;;;15.20;99.90;;;;;;4842963;29;20185;-60
2022/06/13 03:15:49;;;;;;;14.40;9.77;;;15.20;99.90;;;;;;4842868;29;20272;-61
2022/06/13 03:18:23;;;;;;;14.33;10.50;;;15.30;99.90;;;;;;4848990;29;20192;-61
2022/06/13 03:20:52;;;;;;;13.10;8.83;;;15.30;99.90;;;;;;4861136;29;20650;-61
2022/06/13 03:23:25;;;;;;;12.03;8.83;;;15.40;99.90;;;;;;4861169;29;20216;-60
2022/06/13 03:26:05;;;;;;;21.93;9.77;;;15.50;99.90;;;;;;4862304;29;20223;-60
2022/06/13 03:28:41;;;;;;;13.00;8.27;;;15.70;99.90;;;;;;4861203;29;20236;-60
2022/06/13 03:31:32;;;;;;;10.53;7.67;;;15.80;99.90;;;;;;4860438;29;20192;-60
2022/06/13 03:34:05;;;;;;;13.13;8.50;;;16.00;99.90;;;;;;4860835;29;20676;-60
2022/06/13 03:36:49;;;;;;;10.83;8.43;;;16.20;99.90;;;;;;4860971;29;20177;-60
2022/06/13 03:39:20;;;;;;;16.80;9.20;;;16.30;99.90;;;;;;4859860;29;20552;-60
2022/06/13 03:41:53;;;;;;;11.17;8.17;;;16.30;99.90;;;;;;4860954;29;20196;-61
2022/06/13 03:44:26;;;;;;;10.73;7.77;;;16.40;99.90;;;;;;4860542;29;20223;-60
2022/06/13 03:47:19;;;;;;;11.57;7.87;;;16.50;99.90;;;;;;4860658;29;20765;-60
2022/06/13 03:50:18;;;;;;;11.03;7.83;;;16.60;99.90;;;;;;4860513;29;20661;-62
2022/06/13 03:52:51;;;;;;;15.63;7.80;;;16.60;99.90;;;;;;4859937;29;20216;-60
2022/06/13 03:55:23;;;;;;;11.43;7.50;;;16.70;99.90;;;;;;4860192;29;20589;-60
2022/06/13 03:58:10;;;;;;;10.30;7.03;;;16.80;99.90;;;;;;4860526;29;20638;-60
2022/06/13 04:00:45;;;;;;;14.40;7.57;;;16.90;99.90;;;;;;4860287;29;20314;-61
2022/06/13 04:03:11;;;;;;;11.70;7.30;;;16.90;99.90;;;;;;4843337;29;20220;-61
2022/06/13 04:05:42;;;;;;;9.30;7.20;;;17.00;99.90;;;;;;4860392;29;20241;-61
2022/06/13 04:08:10;;;;;;;14.07;7.77;;;17.00;99.90;;;;;;4860248;29;20545;-60
2022/06/13 04:11:19;;;;;;;8.30;6.97;;;17.10;99.90;;;;;;4852294;29;20325;-60
2022/06/13 04:14:20;;;;;;;8.87;6.97;;;17.10;99.90;;;;;;4800962;29;20241;-59
2022/06/13 04:17:08;;;;;;;9.53;7.07;;;17.20;99.90;;;;;;4841666;29;20690;-62
2022/06/13 04:19:37;;;;;;;10.07;7.00;;;17.20;99.90;;;;;;4857852;29;20189;-60
2022/06/13 04:22:18;;;;;;;10.93;7.47;;;17.20;99.90;;;;;;4842795;29;20181;-59
2022/06/13 04:25:03;;;;;;;10.17;7.23;;;17.30;99.90;;;;;;4860110;29;20208;-60
2022/06/13 04:27:41;;;;;;;14.67;6.53;;;17.40;99.90;;;;;;4861552;29;20564;-60
2022/06/13 04:30:17;;;;;;;8.80;6.13;;;17.50;99.90;;;;;;4859443;29;20604;-60
2022/06/13 04:33:00;;;;;;;10.47;7.10;;;17.60;99.90;;;;;;4859598;29;20211;-61
2022/06/13 04:35:33;;;;;;;7.83;6.33;;;17.70;99.90;;;;;;4859651;29;20204;-61
2022/06/13 04:38:01;;;;;;;7.37;6.00;;;17.80;99.90;;;;;;4859139;29;20191;-61
2022/06/13 04:40:29;;;;;;;8.37;6.50;;;17.90;99.90;;;;;;4859471;29;20189;-61
2022/06/13 04:42:56;;;;;;;16.07;6.43;;;18.00;99.90;;;;;;4842620;29;20248;-60
2022/06/13 04:45:25;;;;;;;12.30;6.18;;;18.10;99.90;;;;;;4858956;29;20511;-62
2022/06/13 04:47:53;;;;;;;11.70;5.90;;;18.10;99.90;;;;;;4842823;29;20193;-60
2022/06/13 04:50:37;;;;;;;9.60;5.38;;;18.20;99.90;;;;;;4859097;29;20257;-60
2022/06/13 04:53:09;;;;;;;7.63;5.53;;;18.20;99.90;;;;;;4859277;29;20559;-59
2022/06/13 04:55:44;;;;;;;6.50;5.37;;;18.20;99.90;;;;;;4859495;29;20625;-60
2022/06/13 04:58:30;;;;;;;13.93;5.65;;;18.30;99.90;;;;;;4859142;29;20184;-60
2022/06/13 05:01:26;;;;;;;9.27;4.82;;;18.50;99.90;;;;;;4859406;29;20188;-60
2022/06/13 05:03:54;;;;;;;10.50;4.63;;;18.50;99.90;;;;;;4842496;29;20569;-60
2022/06/13 05:06:39;;;;;;;7.95;5.03;;;18.60;99.90;;;;;;4842238;29;20213;-61
2022/06/13 05:09:25;;;;;;;6.78;4.93;;;18.70;99.90;;;;;;4858721;29;20271;-61
2022/06/13 05:12:11;;;;;;;11.68;4.70;;;18.70;99.90;;;;;;4841928;29;20186;-60
2022/06/13 05:14:54;;;;;;;7.95;4.45;;;18.80;99.90;;;;;;4824523;29;20201;-61
2022/06/13 05:18:05;;;;;;;11.63;5.03;;;18.90;99.90;;;;;;4840413;29;20520;-61
2022/06/13 05:21:09;;;;;;;9.95;4.38;;;18.90;99.90;;;;;;4821875;29;20179;-61
2022/06/13 05:23:45;;;;;;;8.63;4.82;;;19.00;99.90;;;;;;4822079;29;20213;-62
2022/06/13 05:26:11;;;;;;;8.77;4.72;;;19.10;99.90;;;;;;4822238;29;20285;-62
2022/06/13 05:28:37;;;;;;;8.77;4.28;;;19.10;99.90;;;;;;4822006;29;20326;-61
2022/06/13 05:31:29;;;;;;;9.15;4.68;;;19.10;99.90;;;;;;4822155;29;20191;-60
2022/06/13 05:33:58;;;;;;;6.68;4.80;;;19.10;99.90;;;;;;4819525;29;20210;-62
2022/06/13 05:36:26;;;;;;;8.25;4.60;;;19.10;99.90;;;;;;4822307;29;20771;-62
2022/06/13 05:39:06;;;;;;;7.78;4.82;;;19.10;99.90;;;;;;4822412;29;20557;-61
2022/06/13 05:41:32;;;;;;;6.15;4.25;;;19.20;99.90;;;;;;4822422;29;20708;-61
2022/06/13 05:43:57;;;;;;;5.60;4.70;;;19.20;99.90;;;;;;4821898;29;20226;-61
2022/06/13 05:46:28;;;;;;;9.75;5.32;;;19.30;99.90;;;;;;4822069;29;20191;-61
2022/06/13 05:48:54;;;;;;;7.90;4.93;;;19.40;99.90;;;;;;4821881;29;20212;-61
2022/06/13 05:51:20;;;;;;;7.03;4.82;;;19.40;99.90;;;;;;4822278;29;20800;-60
2022/06/13 05:53:46;;;;;;;7.32;5.00;;;19.50;99.90;;;;;;4822059;29;20294;-62
2022/06/13 05:56:12;;;;;;;10.00;5.43;;;19.50;99.90;;;;;;4821233;29;20281;-59
2022/06/13 05:58:38;;;;;;;7.82;4.57;;;19.60;99.90;;;;;;4805498;29;20197;-59
2022/06/13 06:01:05;;;;;;;8.52;5.03;;;19.70;99.90;;;;;;4821862;29;20551;-62
2022/06/13 06:03:32;;;;;;;8.52;4.63;;;19.80;99.90;;;;;;4823828;29;20226;-61
2022/06/13 06:06:00;;;;;;;11.32;4.90;;;19.90;99.90;;;;;;4825273;29;20243;-62
2022/06/13 06:08:29;;;;;;;9.98;4.85;;;20.00;99.90;;;;;;4824575;29;20186;-60
2022/06/13 06:10:57;;;;;;;8.45;5.13;;;20.10;99.90;;;;;;4835691;29;20198;-61
2022/06/13 06:13:24;;;;;;;6.88;5.40;;;20.10;99.90;;;;;;4826248;29;20710;-60
2022/06/13 06:15:52;;;;;;;11.98;7.38;;;20.10;99.90;;;;;;4842947;29;20200;-61
2022/06/13 06:18:18;;;;;;;13.55;8.93;;;20.20;99.90;;;;;;4849205;29;20188;-61
2022/06/13 06:20:44;;;;;;;28.23;15.38;;;20.20;99.90;;;;;;4845072;29;20281;-62
2022/06/13 06:23:12;;;;;;;36.38;23.10;;;20.20;99.90;;;;;;4861503;29;20324;-60
2022/06/13 06:25:38;;;;;;;9.95;6.30;;;20.30;99.90;;;;;;4861877;29;20251;-61
2022/06/13 06:28:05;;;;;;;26.55;14.43;;;20.40;99.90;;;;;;4861038;29;20328;-60
2022/06/13 06:30:31;;;;;;;10.93;6.53;;;20.50;99.90;;;;;;4861236;29;20436;-61
2022/06/13 06:32:57;;;;;;;10.13;7.13;;;20.60;99.90;;;;;;4861330;29;20201;-60
2022/06/13 06:35:28;;;;;;;9.45;4.78;;;20.70;99.90;;;;;;4844191;29;20253;-60
2022/06/13 06:37:55;;;;;;;7.82;5.28;;;20.60;99.90;;;;;;4861361;29;20188;-61
2022/06/13 06:40:24;;;;;;;8.30;6.43;;;20.70;99.90;;;;;;4861114;29;20234;-61
2022/06/13 06:42:49;;;;;;;9.32;6.35;;;20.80;99.90;;;;;;4860983;29;20293;-62
2022/06/13 06:45:17;;;;;;;9.02;5.28;;;20.80;99.90;;;;;;4860595;29;20641;-61
2022/06/13 06:47:43;;;;;;;36.33;19.58;;;20.80;99.90;;;;;;4844975;29;20229;-61
2022/06/13 06:50:15;;;;;;;46.35;26.33;;;20.90;99.90;;;;;;4860880;29;20180;-62
2022/06/13 06:52:42;;;;;;;14.07;9.38;;;21.10;99.90;;;;;;4861291;29;20181;-61
2022/06/13 07:00:47;;;;;;;9.05;6.95;;;21.40;99.90;;;;;;4861110;29;20241;-66
2022/06/13 07:03:13;;;;;;;9.98;5.97;;;21.50;99.90;;;;;;4860773;29;20681;-62
2022/06/13 07:05:39;;;;;;;6.53;5.75;;;21.40;99.90;;;;;;4860581;29;20189;-61
2022/06/13 07:08:05;;;;;;;6.22;5.43;;;21.50;99.90;;;;;;4860574;29;20189;-63
2022/06/13 07:10:30;;;;;;;6.57;4.82;;;21.60;99.90;;;;;;4853240;29;20208;-61
2022/06/13 07:12:56;;;;;;;6.22;4.82;;;21.60;99.90;;;;;;4842585;29;20646;-60
2022/06/13 07:15:22;;;;;;;6.65;4.82;;;21.50;99.90;;;;;;4840815;29;20198;-61
2022/06/13 07:17:48;;;;;;;6.63;5.35;;;21.60;99.90;;;;;;4844865;29;20197;-62
2022/06/13 07:20:14;;;;;;;6.95;5.18;;;21.60;99.90;;;;;;4860086;29;20783;-61
2022/06/13 07:22:47;;;;;;;7.22;5.18;;;21.70;99.90;;;;;;4859950;29;20185;-61
2022/06/13 07:25:20;;;;;;;6.18;5.22;;;21.80;99.90;;;;;;4859883;29;20189;-64
2022/06/13 07:27:45;;;;;;;7.97;4.90;;;21.80;99.90;;;;;;4860439;29;20232;-61
2022/06/13 07:30:13;;;;;;;7.95;5.22;;;21.80;99.90;;;;;;4859793;29;20192;-61
2022/06/13 07:32:40;;;;;;;5.18;4.07;;;21.80;99.90;;;;;;4859980;29;20264;-63
2022/06/13 07:35:06;;;;;;;9.63;4.45;;;21.80;99.90;;;;;;4860219;29;20184;-62
2022/06/13 07:40:17;;;;;;;5.18;3.90;;;22.10;99.90;;;;;;4859812;29;20196;-61
2022/06/13 07:42:47;;;;;;;8.10;3.95;;;22.20;99.90;;;;;;4859915;29;20209;-61
2022/06/13 07:45:20;;;;;;;6.47;3.90;;;22.30;99.90;;;;;;4859664;29;20192;-60
2022/06/13 07:47:46;;;;;;;7.47;3.50;;;22.40;99.90;;;;;;4859859;29;20756;-61
2022/06/13 07:50:13;;;;;;;5.28;4.00;;;22.40;99.90;;;;;;4859179;29;20264;-64
2022/06/13 07:52:39;;;;;;;5.82;3.58;;;22.50;99.90;;;;;;4860008;29;20189;-62
2022/06/13 07:55:06;;;;;;;7.22;3.35;;;22.70;99.90;;;;;;4859347;29;20768;-61
2022/06/13 07:57:32;;;;;;;6.80;3.75;;;22.80;99.50;;;;;;4859059;29;20571;-61
2022/06/13 07:59:57;;;;;;;5.18;2.83;;;22.90;99.50;;;;;;4842698;29;20185;-61
2022/06/13 08:02:30;;;;;;;4.95;2.90;;;23.00;98.30;;;;;;4859480;29;20186;-62
2022/06/13 08:04:55;;;;;;;3.28;2.92;;;23.00;97.30;;;;;;4859600;29;20193;-61
2022/06/13 08:07:21;;;;;;;10.45;3.90;;;23.10;98.20;;;;;;4842898;29;20280;-62
2022/06/13 08:09:47;;;;;;;5.43;3.35;;;23.10;98.40;;;;;;4857738;29;20633;-62
2022/06/13 08:12:16;;;;;;;3.85;3.22;;;23.20;97.60;;;;;;4824126;29;20281;-62
2022/06/13 08:14:45;;;;;;;7.47;3.08;;;23.20;97.40;;;;;;4824119;29;20189;-62
2022/06/13 08:17:12;;;;;;;5.38;3.00;;;23.20;96.30;;;;;;4841223;29;20204;-61
2022/06/13 08:19:38;;;;;;;5.30;3.20;;;23.10;96.10;;;;;;4856402;29;20184;-61
2022/06/13 08:22:04;;;;;;;4.68;3.20;;;23.10;96.50;;;;;;4859510;29;20758;-60
2022/06/13 08:24:30;;;;;;;4.70;3.10;;;23.10;96.40;;;;;;4858468;29;20229;-61
2022/06/13 08:26:56;;;;;;;6.95;3.08;;;23.20;96.20;;;;;;4858241;29;20273;-62
2022/06/13 08:29:21;;;;;;;4.97;2.75;;;23.30;96.10;;;;;;4858510;29;21094;-62
2022/06/13 08:31:47;;;;;;;7.43;3.08;;;23.50;95.30;;;;;;4842432;29;20694;-61
2022/06/13 08:34:13;;;;;;;4.72;2.80;;;23.60;94.60;;;;;;4812529;29;20197;-61
2022/06/13 08:36:39;;;;;;;7.90;3.30;;;23.70;95.10;;;;;;4858850;29;20212;-60
2022/06/13 08:39:05;;;;;;;8.32;3.50;;;23.70;94.80;;;;;;4859047;29;20181;-61
2022/06/13 08:42:00;;;;;;;11.40;3.53;;;23.70;95.00;;;;;;4858871;29;20188;-64
2022/06/13 08:44:44;;;;;;;7.10;3.40;;;23.70;95.80;;;;;;4858999;29;20582;-62
2022/06/13 08:47:27;;;;;;;4.53;2.97;;;23.90;95.40;;;;;;4859300;29;20276;-61
2022/06/13 08:50:11;;;;;;;4.40;3.03;;;23.90;94.80;;;;;;4858783;29;20249;-61
2022/06/13 08:53:04;;;;;;;7.22;3.63;;;23.80;94.80;;;;;;4842717;29;20570;-61
2022/06/13 08:55:47;;;;;;;9.57;3.53;;;23.80;95.00;;;;;;4858277;29;20205;-61
2022/06/13 08:58:38;;;;;;;4.20;2.90;;;23.90;95.40;;;;;;4858919;29;20181;-61
2022/06/13 09:01:10;;;;;;;3.63;2.83;;;24.10;94.00;;;;;;4859235;29;20181;-61
2022/06/13 09:03:51;;;;;;;9.70;3.35;;;24.10;94.00;;;;;;4858019;29;20544;-61
2022/06/13 09:06:42;;;;;;;6.80;2.97;;;24.10;93.80;;;;;;4858560;29;20231;-62
2022/06/13 09:09:41;;;;;;;7.65;2.90;;;24.00;94.20;;;;;;4858500;29;20218;-62
2022/06/13 09:12:28;;;;;;;11.82;3.47;;;24.20;93.50;;;;;;4805746;29;20624;-61
2022/06/13 09:15:10;;;;;;;12.77;4.63;;;24.20;93.30;;;;;;4817989;29;20225;-61
2022/06/13 09:17:41;;;;;;;6.28;2.72;;;24.50;93.40;;;;;;4824396;29;20225;-61
2022/06/13 09:20:12;;;;;;;5.90;3.08;;;24.70;92.50;;;;;;4858642;29;20215;-61
2022/06/13 09:23:05;;;;;;;3.67;2.70;;;24.90;92.20;;;;;;4858350;29;20608;-61
2022/06/13 09:25:55;;;;;;;6.05;3.30;;;24.90;91.20;;;;;;4857989;29;20254;-61
2022/06/13 09:28:28;;;;;;;11.10;3.50;;;24.90;91.70;;;;;;4857956;29;20381;-62
2022/06/13 09:31:06;;;;;;;3.72;2.72;;;24.90;91.60;;;;;;4858388;29;20721;-62
2022/06/13 09:33:35;;;;;;;7.30;4.95;;;24.80;90.80;;;;;;4840863;29;20188;-62
2022/06/13 09:36:13;;;;;;;8.50;2.97;;;24.80;90.80;;;;;;4857852;29;20174;-62
2022/06/13 09:38:44;;;;;;;5.40;3.15;;;24.90;91.10;;;;;;4859936;29;20261;-61
2022/06/13 09:41:48;;;;;;;2.72;2.20;;;25.10;91.00;;;;;;4860834;29;20257;-62
2022/06/13 09:44:44;;;;;;;4.35;2.60;;;25.30;88.70;;;;;;4822479;29;20267;-61
2022/06/13 09:47:36;;;;;;;8.07;3.08;;;25.60;84.90;;;;;;4860860;29;20189;-62
2022/06/13 09:50:14;;;;;;;4.43;2.63;;;25.60;85.40;;;;;;4831388;29;20189;-61
2022/06/13 09:52:51;;;;;;;3.25;2.30;;;25.20;83.20;;;;;;4860545;29;20205;-61
2022/06/13 09:55:21;;;;;;;3.88;2.22;;;25.20;84.90;;;;;;4843727;29;20204;-61
2022/06/13 09:58:06;;;;;;;3.55;2.55;;;25.20;84.70;;;;;;4860652;29;20200;-60
2022/06/13 10:00:38;;;;;;;8.07;3.50;;;25.30;83.70;;;;;;4860147;29;20181;-63
2022/06/13 10:03:35;;;;;;;6.93;3.22;;;25.50;84.40;;;;;;4860551;29;20209;-61
2022/06/13 10:06:18;;;;;;;5.97;2.90;;;25.70;83.10;;;;;;4859994;29;20217;-60
2022/06/13 10:09:03;;;;;;;6.80;2.88;;;25.70;84.70;;;;;;4860589;29;20188;-61
2022/06/13 10:11:29;;;;;;;10.00;5.22;;;25.80;83.70;;;;;;4845459;29;20185;-61
2022/06/13 10:14:06;;;;;;;7.03;3.17;;;25.80;84.60;;;;;;4842134;29;20201;-62
2022/06/13 10:16:50;;;;;;;6.15;2.72;;;25.70;85.20;;;;;;4841563;29;20197;-59
2022/06/13 10:19:39;;;;;;;5.75;2.90;;;25.80;84.30;;;;;;4855758;29;20188;-61
2022/06/13 10:22:36;;;;;;;9.23;3.55;;;25.90;85.70;;;;;;4838951;29;20208;-62
2022/06/13 10:25:17;;;;;;;5.93;3.30;;;25.90;84.90;;;;;;4860155;29;20249;-61
2022/06/13 10:27:45;;;;;;;6.55;3.47;;;26.20;84.60;;;;;;4816138;29;1312209;-60
2022/06/13 10:30:36;;;;;;;10.35;3.58;;;26.30;83.60;;;;;;4861972;29;20213;-61
2022/06/13 10:33:21;;;;;;;7.18;3.28;;;26.50;83.00;;;;;;4861416;29;20193;-62
2022/06/13 10:36:13;;;;;;;7.68;3.70;;;26.60;82.10;;;;;;4861480;29;20225;-63
2022/06/13 10:38:44;;;;;;;11.32;3.38;;;26.60;81.60;;;;;;4852730;29;20542;-60
2022/06/13 10:41:10;;;;;;;8.75;3.13;;;26.60;81.50;;;;;;4860948;29;20979;-61
2022/06/13 10:43:37;;;;;;;6.22;3.17;;;26.70;80.00;;;;;;4861072;29;20220;-62
2022/06/13 10:46:06;;;;;;;6.65;2.30;;;26.90;80.30;;;;;;4860975;29;20650;-61
2022/06/13 10:48:42;;;;;;;3.72;2.70;;;26.90;79.70;;;;;;4861622;29;20189;-61
2022/06/13 10:51:07;;;;;;;10.15;4.05;;;26.90;79.20;;;;;;4861177;29;20272;-61
2022/06/13 10:53:54;;;;;;;9.98;3.60;;;27.20;78.20;;;;;;4860615;29;20351;-60
2022/06/13 10:56:40;;;;;;;6.38;3.22;;;27.10;77.40;;;;;;4844154;29;20650;-61
2022/06/13 10:59:06;;;;;;;6.63;3.33;;;27.00;78.40;;;;;;4844434;29;20240;-62
2022/06/13 11:01:32;;;;;;;6.43;3.75;;;27.40;79.20;;;;;;4860604;29;20598;-62
2022/06/13 11:04:15;;;;;;;7.43;3.35;;;27.50;76.70;;;;;;4861053;29;20212;-61
2022/06/13 11:06:54;;;;;;;3.38;2.72;;;27.90;78.00;;;;;;4859981;29;20662;-61
2022/06/13 11:09:20;;;;;;;4.40;2.85;;;28.00;75.90;;;;;;4860760;29;20193;-61
2022/06/13 11:11:46;;;;;;;8.43;3.63;;;27.90;75.70;;;;;;4843945;29;20674;-62
2022/06/13 11:23:06;;;;;;;5.32;2.60;;;29.10;71.70;;;;;;4860604;29;20227;-60
2022/06/13 11:25:34;;;;;;;5.07;2.90;;;28.40;70.90;;;;;;4843180;29;20272;-62
2022/06/13 11:28:03;;;;;;;8.85;3.47;;;28.20;72.30;;;;;;4860698;29;20228;-63
2022/06/13 11:30:47;;;;;;;5.18;3.25;;;28.00;73.60;;;;;;4859950;29;20264;-60
2022/06/13 11:33:13;;;;;;;5.35;3.00;;;29.20;73.90;;;;;;4860561;29;20248;-62
2022/06/13 11:35:46;;;;;;;3.33;2.58;;;31.50;66.20;;;;;;4843413;29;20618;-61
2022/06/13 11:38:23;;;;;;;3.58;2.58;;;33.20;61.10;;;;;;4860477;29;20224;-61
2022/06/13 11:41:18;;;;;;;15.38;3.65;;;34.80;55.60;;;;;;4860154;29;20181;-61
2022/06/13 11:43:51;;;;;;;6.10;3.03;;;36.10;53.00;;;;;;4859832;29;20399;-62
2022/06/13 11:46:41;;;;;;;4.78;3.20;;;36.30;50.00;;;;;;4859849;29;20189;-62
2022/06/13 11:49:35;;;;;;;5.22;2.95;;;35.00;51.30;;;;;;4859491;29;20260;-61
2022/06/13 11:55:21;;;;;;;8.93;3.25;;;32.60;55.10;;;;;;4855333;29;20216;-62
2022/06/13 11:57:53;;;;;;;6.32;3.25;;;31.80;56.10;;;;;;4859281;29;20192;-62
2022/06/13 12:00:19;;;;;;;7.18;3.05;;;31.60;57.40;;;;;;4858730;29;20192;-60
2022/06/13 12:02:48;;;;;;;4.57;3.15;;;32.40;55.50;;;;;;4859051;29;20446;-62
2022/06/13 12:05:36;;;;;;;2.83;2.22;;;34.40;53.60;;;;;;4859186;29;20288;-62
2022/06/13 12:08:22;;;;;;;4.25;2.58;;;36.60;50.30;;;;;;4842012;29;20193;-61
2022/06/13 12:11:03;;;;;;;4.25;2.40;;;37.50;48.10;;;;;;4849551;29;20213;-62
2022/06/13 12:13:34;;;;;;;5.13;3.00;;;38.50;45.90;;;;;;4840430;29;20199;-60
2022/06/13 12:16:29;;;;;;;11.88;3.00;;;38.80;45.60;;;;;;4824114;29;20287;-61
2022/06/13 12:19:14;;;;;;;4.82;2.72;;;39.90;44.60;;;;;;4851756;29;20203;-63
2022/06/13 12:21:47;;;;;;;10.60;3.20;;;41.50;42.40;;;;;;4859162;29;20184;-61
2022/06/13 12:24:29;;;;;;;3.78;2.40;;;42.30;39.90;;;;;;4859311;29;20260;-61
2022/06/13 12:27:06;;;;;;;3.97;2.70;;;42.10;39.30;;;;;;4859473;29;20192;-62
2022/06/13 12:29:34;;;;;;;4.30;3.25;;;42.20;39.10;;;;;;4859241;29;20279;-61
2022/06/13 12:32:11;;;;;;;3.80;2.47;;;42.50;39.60;;;;;;4859052;29;20594;-62
2022/06/13 12:35:04;;;;;;;3.90;2.90;;;41.60;38.00;;;;;;4859101;29;20188;-62
2022/06/13 12:38:00;;;;;;;7.25;3.60;;;38.90;40.80;;;;;;4859253;29;20288;-60
2022/06/13 12:40:34;;;;;;;8.98;3.80;;;37.00;43.60;;;;;;4859384;29;20259;-62
2022/06/13 12:43:21;;;;;;;8.35;3.20;;;38.40;43.20;;;;;;4858874;29;20307;-61
2022/06/13 12:46:03;;;;;;;9.02;3.47;;;39.70;42.30;;;;;;4842608;29;20274;-62
2022/06/13 12:48:45;;;;;;;3.90;2.88;;;39.70;42.00;;;;;;4858308;29;20210;-63
2022/06/13 12:51:46;;;;;;;9.32;3.92;;;39.70;40.20;;;;;;4858833;29;20257;-61
2022/06/13 12:54:46;;;;;;;9.68;2.58;;;41.50;38.90;;;;;;4859433;29;20204;-62
2022/06/13 12:57:35;;;;;;;9.88;3.15;;;40.30;38.80;;;;;;4834766;29;20216;-62
2022/06/13 13:00:18;;;;;;;13.85;3.90;;;38.00;41.80;;;;;;4858553;29;20188;-62
2022/06/13 13:03:06;;;;;;;7.00;3.42;;;35.80;45.30;;;;;;4841800;29;20185;-61
2022/06/13 13:06:03;;;;;;;19.95;14.13;;;34.30;47.90;;;;;;4858890;29;20271;-61
2022/06/13 13:08:47;;;;;;;7.80;4.88;;;33.10;50.30;;;;;;4828940;29;20189;-67
2022/06/13 13:11:39;;;;;;;20.25;6.45;;;32.70;51.40;;;;;;4846433;29;20190;-60
2022/06/13 13:14:30;;;;;;;6.78;3.83;;;32.30;51.30;;;;;;4829944;29;20510;-61
2022/06/13 13:17:26;;;;;;;7.28;3.95;;;32.50;51.60;;;;;;4840156;29;20553;-62
2022/06/13 13:19:52;;;;;;;6.05;2.53;;;33.00;50.10;;;;;;4780329;29;20255;-60
2022/06/13 13:22:40;;;;;;;14.18;3.25;;;33.20;50.00;;;;;;4822492;29;20640;-60
2022/06/13 13:25:14;;;;;;;10.27;3.67;;;33.60;49.80;;;;;;4822157;29;20214;-62
2022/06/13 13:28:09;;;;;;;5.63;3.17;;;35.00;48.60;;;;;;4821757;29;20245;-60
2022/06/13 13:31:11;;;;;;;8.73;3.90;;;36.00;45.70;;;;;;4821363;29;20186;-61
2022/06/13 13:34:18;;;;;;;5.28;3.35;;;38.00;44.20;;;;;;4821734;29;20193;-63
2022/06/13 13:36:53;;;;;;;5.90;2.85;;;40.00;41.90;;;;;;4821745;29;20177;-61
2022/06/13 13:39:44;;;;;;;4.97;3.13;;;41.50;40.20;;;;;;4821919;29;20189;-62
2022/06/13 13:42:21;;;;;;;3.35;2.60;;;42.10;39.00;;;;;;4821904;29;20190;-60
2022/06/13 13:44:54;;;;;;;7.78;2.85;;;43.10;38.10;;;;;;4821706;29;20315;-61
2022/06/13 13:47:22;;;;;;;4.28;2.70;;;43.30;37.80;;;;;;4822148;29;20201;-61
2022/06/13 13:49:57;;;;;;;4.28;2.47;;;44.50;36.70;;;;;;4822377;29;20210;-63
2022/06/13 13:52:29;;;;;;;4.45;2.53;;;45.00;35.30;;;;;;4822212;29;20197;-61
2022/06/13 13:55:01;;;;;;;4.18;2.20;;;45.10;36.10;;;;;;4821978;29;20589;-61